Burgtor — V2OR7 — position and weather

sailwx.info

Track history (hours):
 
Tides and Currents Weather Stations Pressure Air Temp Water Temp Dewpoint Dewpoint Depression Visibility Wind Speed Wind Dir Waves Ship Positions

Burgtor

Last reported at 2015-Apr-25 11:07 UTC. Time now 2015-Apr-27 20:43 UTC.
Position N 55°04' W 005°15'.

Length 87 m; draft 5.2 m.

Type: Cargo ship. MMSI: 304665000.

Date/timePositionNaut miles runAvg speedWind from/ knotsBaromVisibWave heightAir tempDewpointWater temp
2015-Apr-25 11:07N 55°04' W 005°15'5 8.4
2015-Apr-25 10:32N 55°00' W 005°20'9 8.7
2015-Apr-25 09:33N 54°53' W 005°28'9 8.8
2015-Apr-25 08:33N 54°46' W 005°37'9 9.0
2015-Apr-25 07:33N 54°41' W 005°49'4 0.5
2015-Apr-24 23:33N 54°37' W 005°54'0 0.0
2015-Apr-24 22:33N 54°37' W 005°54'0 0.0
2015-Apr-24 07:08N 54°37' W 005°54'0 0.0
2015-Apr-24 04:28N 54°37' W 005°54'6 6.6
2015-Apr-24 03:33N 54°42' W 005°47'8 8.2
2015-Apr-24 02:34N 54°43' W 005°33'8 7.9
2015-Apr-24 01:33N 54°36' W 005°25'8 8.1
2015-Apr-24 00:34N 54°29' W 005°20'8 7.7
2015-Apr-23 23:33N 54°21' W 005°19'8 8.1
2015-Apr-23 22:33N 54°13' W 005°20'8 8.4
2015-Apr-23 21:33N 54°04' W 005°22'244 6.8
2015-Apr-22 09:21N 50°05' W 003°57'14 7.0
2015-Apr-22 07:25N 50°09' W 003°37'7 7.5
2015-Apr-22 06:33N 50°11' W 003°27'9 8.7
2015-Apr-22 05:33N 50°13' W 003°14'10 9.9
2015-Apr-22 04:34N 50°15' W 002°59'1310.9
2015-Apr-22 03:21N 50°18' W 002°39'58 7.4
2015-Apr-21 19:34N 50°31' W 001°10'8 8.1
2015-Apr-21 18:33N 50°32' W 000°58'10 9.8
2015-Apr-21 17:34N 50°35' W 000°43'1010.1
2015-Apr-21 16:34N 50°40' W 000°30'10 9.9
2015-Apr-21 15:32N 50°47' W 000°17'4 3.7
2015-Apr-21 14:32N 50°50' W 000°14'1 0.6
2015-Apr-21 13:28N 50°50' W 000°13'0 0.0
2015-Apr-21 11:16N 50°50' W 000°13'0 0.0
2015-Apr-21 09:10N 50°50' W 000°13'0 0.0
2015-Apr-21 08:13N 50°50' W 000°13'0 0.0
2015-Apr-21 07:16N 50°50' W 000°13'0 0.0
2015-Apr-21 06:28N 50°50' W 000°13'0 0.0
2015-Apr-21 05:34N 50°50' W 000°13'0 0.0
2015-Apr-21 04:34N 50°50' W 000°13'0 0.0
2015-Apr-21 03:30N 50°50' W 000°13'0 0.0
2015-Apr-21 02:33N 50°50' W 000°13'0 0.0
2015-Apr-21 01:30N 50°50' W 000°13'0 0.0
2015-Apr-21 00:33N 50°50' W 000°13'0 0.0
2015-Apr-20 23:09N 50°50' W 000°13'0 0.0
2015-Apr-20 22:30N 50°50' W 000°13'0 0.0
2015-Apr-20 21:30N 50°50' W 000°13'0 0.0
2015-Apr-20 20:27N 50°50' W 000°13'0 0.0
2015-Apr-20 19:33N 50°50' W 000°13'0 0.0
2015-Apr-20 18:33N 50°50' W 000°13'0 0.0
2015-Apr-20 17:33N 50°50' W 000°13'0 0.0
2015-Apr-20 14:21N 50°50' W 000°13'0 0.0
2015-Apr-20 13:33N 50°50' W 000°13'0 0.0
2015-Apr-20 12:27N 50°50' W 000°13'0 0.0
2015-Apr-20 09:30N 50°50' W 000°13'0 0.0
2015-Apr-20 08:15N 50°50' W 000°13'0 0.0
2015-Apr-20 07:33N 50°50' W 000°13'0 0.0
2015-Apr-20 06:33N 50°50' W 000°13'0 0.0
2015-Apr-20 05:27N 50°50' W 000°13'0 0.0
2015-Apr-20 04:30N 50°50' W 000°13'0 0.0
2015-Apr-20 03:33N 50°50' W 000°13'0 0.0
2015-Apr-20 02:33N 50°50' W 000°13'0 0.0
2015-Apr-20 01:33N 50°50' W 000°13'0 0.0
2015-Apr-20 00:33N 50°50' W 000°13'0 0.0
2015-Apr-19 23:33N 50°50' W 000°13'0 0.0
2015-Apr-19 22:30N 50°50' W 000°13'0 0.0
2015-Apr-19 21:30N 50°50' W 000°13'0 0.0
2015-Apr-19 20:33N 50°50' W 000°13'0 0.0
2015-Apr-19 19:33N 50°50' W 000°13'0 0.0
2015-Apr-19 18:27N 50°50' W 000°13'0 0.0
2015-Apr-19 17:27N 50°50' W 000°13'0 0.0
2015-Apr-19 16:26N 50°50' W 000°13'0 0.0
2015-Apr-19 15:20N 50°50' W 000°13'0 0.0
2015-Apr-19 14:29N 50°50' W 000°13'0 0.0
2015-Apr-19 13:32N 50°50' W 000°13'0 0.0
2015-Apr-19 12:32N 50°50' W 000°13'0 0.0
2015-Apr-19 11:17N 50°50' W 000°13'0 0.0
2015-Apr-19 10:20N 50°50' W 000°13'0 0.0
2015-Apr-19 09:29N 50°50' W 000°13'0 0.0
2015-Apr-19 08:29N 50°50' W 000°13'0 0.0
2015-Apr-19 07:32N 50°50' W 000°13'0 0.0
2015-Apr-19 06:32N 50°50' W 000°13'0 0.0
2015-Apr-19 05:32N 50°50' W 000°13'0 0.0
2015-Apr-19 04:32N 50°50' W 000°13'0 0.0
2015-Apr-19 03:32N 50°50' W 000°13'0 0.0
2015-Apr-19 02:33N 50°50' W 000°13'0 0.0
2015-Apr-19 01:32N 50°50' W 000°13'0 0.0
2015-Apr-19 00:29N 50°50' W 000°13'0 0.0
2015-Apr-18 23:32N 50°50' W 000°13'0 0.0
2015-Apr-18 22:32N 50°50' W 000°13'0 0.0
2015-Apr-18 21:32N 50°50' W 000°13'0 0.0
2015-Apr-18 20:32N 50°50' W 000°13'0 0.0
2015-Apr-18 19:32N 50°50' W 000°13'0 0.0
2015-Apr-18 18:32N 50°50' W 000°13'0 0.0
2015-Apr-18 17:32N 50°50' W 000°13'0 0.0
2015-Apr-18 16:32N 50°50' W 000°13'0 0.0
2015-Apr-18 15:26N 50°50' W 000°13'0 0.0
2015-Apr-18 14:20N 50°50' W 000°13'0 0.0
2015-Apr-18 13:14N 50°50' W 000°13'0 0.0
2015-Apr-18 11:32N 50°50' W 000°13'0 0.0
2015-Apr-18 09:29N 50°50' W 000°13'0 0.0
2015-Apr-18 08:29N 50°50' W 000°13'0 0.0
2015-Apr-18 07:32N 50°50' W 000°13'0 0.0
2015-Apr-18 06:29N 50°50' W 000°13'0 0.0
2015-Apr-18 05:31N 50°50' W 000°13'0 0.0
2015-Apr-18 04:31N 50°50' W 000°13'0 0.0
2015-Apr-18 03:31N 50°50' W 000°13'0 0.0
2015-Apr-18 02:31N 50°50' W 000°13'0 0.0
2015-Apr-18 01:31N 50°50' W 000°13'0 0.0
2015-Apr-18 00:31N 50°50' W 000°13'0 0.0
2015-Apr-17 23:31N 50°50' W 000°13'0 0.0
2015-Apr-17 22:31N 50°50' W 000°13'0 0.0
2015-Apr-17 17:25N 50°50' W 000°13'0 0.0
2015-Apr-17 16:25N 50°50' W 000°13'11 1.6
2015-Apr-17 09:33N 50°43' W 000°26'9 9.0
2015-Apr-17 08:33N 50°37' W 000°38'1010.0
2015-Apr-17 07:33N 50°32' W 000°51'226 8.7
2015-Apr-16 05:33N 48°23' W 005°36'9 8.4
2015-Apr-16 04:31N 48°14' W 005°34'8 8.8
2015-Apr-16 03:33N 48°06' W 005°29'58 9.6
2015-Apr-15 21:33N 47°12' W 005°00'  
Track history (hours):
 
Tides and Currents Weather Stations Pressure Air Temp Water Temp Dewpoint Dewpoint Depression Visibility Wind Speed Wind Dir Waves Ship Positions

Burgtor

Last reported at 2015-Apr-25 11:07 UTC. Time now 2015-Apr-27 20:43 UTC.
Position N 55°04' W 005°15'.

Length 87 m; draft 5.2 m.

Type: Cargo ship. MMSI: 304665000.

Date/timePositionNaut miles runAvg speedWind from/ knotsBaromVisibWave heightAir tempDewpointWater temp
2015-Apr-25 11:07N 55°04' W 005°15'5 8.4
2015-Apr-25 10:32N 55°00' W 005°20'9 8.7
2015-Apr-25 09:33N 54°53' W 005°28'9 8.8
2015-Apr-25 08:33N 54°46' W 005°37'9 9.0
2015-Apr-25 07:33N 54°41' W 005°49'4 0.5
2015-Apr-24 23:33N 54°37' W 005°54'0 0.0
2015-Apr-24 22:33N 54°37' W 005°54'0 0.0
2015-Apr-24 07:08N 54°37' W 005°54'0 0.0
2015-Apr-24 04:28N 54°37' W 005°54'6 6.6
2015-Apr-24 03:33N 54°42' W 005°47'8 8.2
2015-Apr-24 02:34N 54°43' W 005°33'8 7.9
2015-Apr-24 01:33N 54°36' W 005°25'8 8.1
2015-Apr-24 00:34N 54°29' W 005°20'8 7.7
2015-Apr-23 23:33N 54°21' W 005°19'8 8.1
2015-Apr-23 22:33N 54°13' W 005°20'8 8.4
2015-Apr-23 21:33N 54°04' W 005°22'244 6.8
2015-Apr-22 09:21N 50°05' W 003°57'14 7.0
2015-Apr-22 07:25N 50°09' W 003°37'7 7.5
2015-Apr-22 06:33N 50°11' W 003°27'9 8.7
2015-Apr-22 05:33N 50°13' W 003°14'10 9.9
2015-Apr-22 04:34N 50°15' W 002°59'1310.9
2015-Apr-22 03:21N 50°18' W 002°39'58 7.4
2015-Apr-21 19:34N 50°31' W 001°10'8 8.1
2015-Apr-21 18:33N 50°32' W 000°58'10 9.8
2015-Apr-21 17:34N 50°35' W 000°43'1010.1
2015-Apr-21 16:34N 50°40' W 000°30'10 9.9
2015-Apr-21 15:32N 50°47' W 000°17'4 3.7
2015-Apr-21 14:32N 50°50' W 000°14'1 0.6
2015-Apr-21 13:28N 50°50' W 000°13'0 0.0
2015-Apr-21 11:16N 50°50' W 000°13'0 0.0
2015-Apr-21 09:10N 50°50' W 000°13'0 0.0
2015-Apr-21 08:13N 50°50' W 000°13'0 0.0
2015-Apr-21 07:16N 50°50' W 000°13'0 0.0
2015-Apr-21 06:28N 50°50' W 000°13'0 0.0
2015-Apr-21 05:34N 50°50' W 000°13'0 0.0
2015-Apr-21 04:34N 50°50' W 000°13'0 0.0
2015-Apr-21 03:30N 50°50' W 000°13'0 0.0
2015-Apr-21 02:33N 50°50' W 000°13'0 0.0
2015-Apr-21 01:30N 50°50' W 000°13'0 0.0
2015-Apr-21 00:33N 50°50' W 000°13'0 0.0
2015-Apr-20 23:09N 50°50' W 000°13'0 0.0
2015-Apr-20 22:30N 50°50' W 000°13'0 0.0
2015-Apr-20 21:30N 50°50' W 000°13'0 0.0
2015-Apr-20 20:27N 50°50' W 000°13'0 0.0
2015-Apr-20 19:33N 50°50' W 000°13'0 0.0
2015-Apr-20 18:33N 50°50' W 000°13'0 0.0
2015-Apr-20 17:33N 50°50' W 000°13'0 0.0
2015-Apr-20 14:21N 50°50' W 000°13'0 0.0
2015-Apr-20 13:33N 50°50' W 000°13'0 0.0
2015-Apr-20 12:27N 50°50' W 000°13'0 0.0
2015-Apr-20 09:30N 50°50' W 000°13'0 0.0
2015-Apr-20 08:15N 50°50' W 000°13'0 0.0
2015-Apr-20 07:33N 50°50' W 000°13'0 0.0
2015-Apr-20 06:33N 50°50' W 000°13'0 0.0
2015-Apr-20 05:27N 50°50' W 000°13'0 0.0
2015-Apr-20 04:30N 50°50' W 000°13'0 0.0
2015-Apr-20 03:33N 50°50' W 000°13'0 0.0
2015-Apr-20 02:33N 50°50' W 000°13'0 0.0
2015-Apr-20 01:33N 50°50' W 000°13'0 0.0
2015-Apr-20 00:33N 50°50' W 000°13'0 0.0
2015-Apr-19 23:33N 50°50' W 000°13'0 0.0
2015-Apr-19 22:30N 50°50' W 000°13'0 0.0
2015-Apr-19 21:30N 50°50' W 000°13'0 0.0
2015-Apr-19 20:33N 50°50' W 000°13'0 0.0
2015-Apr-19 19:33N 50°50' W 000°13'0 0.0
2015-Apr-19 18:27N 50°50' W 000°13'0 0.0
2015-Apr-19 17:27N 50°50' W 000°13'0 0.0
2015-Apr-19 16:26N 50°50' W 000°13'0 0.0
2015-Apr-19 15:20N 50°50' W 000°13'0 0.0
2015-Apr-19 14:29N 50°50' W 000°13'0 0.0
2015-Apr-19 13:32N 50°50' W 000°13'0 0.0
2015-Apr-19 12:32N 50°50' W 000°13'0 0.0
2015-Apr-19 11:17N 50°50' W 000°13'0 0.0
2015-Apr-19 10:20N 50°50' W 000°13'0 0.0
2015-Apr-19 09:29N 50°50' W 000°13'0 0.0
2015-Apr-19 08:29N 50°50' W 000°13'0 0.0
2015-Apr-19 07:32N 50°50' W 000°13'0 0.0
2015-Apr-19 06:32N 50°50' W 000°13'0 0.0
2015-Apr-19 05:32N 50°50' W 000°13'0 0.0
2015-Apr-19 04:32N 50°50' W 000°13'0 0.0
2015-Apr-19 03:32N 50°50' W 000°13'0 0.0
2015-Apr-19 02:33N 50°50' W 000°13'0 0.0
2015-Apr-19 01:32N 50°50' W 000°13'0 0.0
2015-Apr-19 00:29N 50°50' W 000°13'0 0.0
2015-Apr-18 23:32N 50°50' W 000°13'0 0.0
2015-Apr-18 22:32N 50°50' W 000°13'0 0.0
2015-Apr-18 21:32N 50°50' W 000°13'0 0.0
2015-Apr-18 20:32N 50°50' W 000°13'0 0.0
2015-Apr-18 19:32N 50°50' W 000°13'0 0.0
2015-Apr-18 18:32N 50°50' W 000°13'0 0.0
2015-Apr-18 17:32N 50°50' W 000°13'0 0.0
2015-Apr-18 16:32N 50°50' W 000°13'0 0.0
2015-Apr-18 15:26N 50°50' W 000°13'0 0.0
2015-Apr-18 14:20N 50°50' W 000°13'0 0.0
2015-Apr-18 13:14N 50°50' W 000°13'0 0.0
2015-Apr-18 11:32N 50°50' W 000°13'0 0.0
2015-Apr-18 09:29N 50°50' W 000°13'0 0.0
2015-Apr-18 08:29N 50°50' W 000°13'0 0.0
2015-Apr-18 07:32N 50°50' W 000°13'0 0.0
2015-Apr-18 06:29N 50°50' W 000°13'0 0.0
2015-Apr-18 05:31N 50°50' W 000°13'0 0.0
2015-Apr-18 04:31N 50°50' W 000°13'0 0.0
2015-Apr-18 03:31N 50°50' W 000°13'0 0.0
2015-Apr-18 02:31N 50°50' W 000°13'0 0.0
2015-Apr-18 01:31N 50°50' W 000°13'0 0.0
2015-Apr-18 00:31N 50°50' W 000°13'0 0.0
2015-Apr-17 23:31N 50°50' W 000°13'0 0.0
2015-Apr-17 22:31N 50°50' W 000°13'0 0.0
2015-Apr-17 17:25N 50°50' W 000°13'0 0.0
2015-Apr-17 16:25N 50°50' W 000°13'11 1.6
2015-Apr-17 09:33N 50°43' W 000°26'9 9.0
2015-Apr-17 08:33N 50°37' W 000°38'1010.0
2015-Apr-17 07:33N 50°32' W 000°51'226 8.7
2015-Apr-16 05:33N 48°23' W 005°36'9 8.4
2015-Apr-16 04:31N 48°14' W 005°34'8 8.8
2015-Apr-16 03:33N 48°06' W 005°29'58 9.6
2015-Apr-15 21:33N 47°12' W 005°00'  

Dump ship's entire track history